sensor_id;sensor_type;location;lat;lon;timestamp;temperature;humidity
74657;DHT22;63185;45.642;13.764;2023-01-30T00:01:32;4.70;51.30
74657;DHT22;63185;45.642;13.764;2023-01-30T00:03:58;4.70;51.00
74657;DHT22;63185;45.642;13.764;2023-01-30T00:06:25;4.70;50.80
74657;DHT22;63185;45.642;13.764;2023-01-30T00:08:51;4.70;50.80
74657;DHT22;63185;45.642;13.764;2023-01-30T00:11:18;4.70;50.80
74657;DHT22;63185;45.642;13.764;2023-01-30T00:13:45;4.80;50.50
74657;DHT22;63185;45.642;13.764;2023-01-30T00:16:11;4.70;51.10
74657;DHT22;63185;45.642;13.764;2023-01-30T00:18:41;4.70;51.30
74657;DHT22;63185;45.642;13.764;2023-01-30T00:21:09;4.70;51.30
74657;DHT22;63185;45.642;13.764;2023-01-30T00:23:36;4.70;51.40
74657;DHT22;63185;45.642;13.764;2023-01-30T00:26:03;4.70;50.80
74657;DHT22;63185;45.642;13.764;2023-01-30T00:28:29;4.70;50.10
74657;DHT22;63185;45.642;13.764;2023-01-30T00:30:56;4.80;48.00
74657;DHT22;63185;45.642;13.764;2023-01-30T00:33:23;4.90;47.90
74657;DHT22;63185;45.642;13.764;2023-01-30T00:35:50;4.90;48.50
74657;DHT22;63185;45.642;13.764;2023-01-30T00:38:17;4.90;48.70
74657;DHT22;63185;45.642;13.764;2023-01-30T00:40:43;4.90;48.80
74657;DHT22;63185;45.642;13.764;2023-01-30T00:43:11;4.90;49.70
74657;DHT22;63185;45.642;13.764;2023-01-30T00:45:56;4.90;49.90
74657;DHT22;63185;45.642;13.764;2023-01-30T00:48:41;4.80;50.50
74657;DHT22;63185;45.642;13.764;2023-01-30T00:51:07;4.80;50.70
74657;DHT22;63185;45.642;13.764;2023-01-30T00:53:32;4.70;51.00
74657;DHT22;63185;45.642;13.764;2023-01-30T00:55:58;4.70;51.10
74657;DHT22;63185;45.642;13.764;2023-01-30T00:58:24;4.70;51.50
74657;DHT22;63185;45.642;13.764;2023-01-30T01:00:50;4.60;51.30
74657;DHT22;63185;45.642;13.764;2023-01-30T01:03:16;4.60;51.30
74657;DHT22;63185;45.642;13.764;2023-01-30T01:05:42;4.60;50.50
74657;DHT22;63185;45.642;13.764;2023-01-30T01:08:09;4.60;50.00
74657;DHT22;63185;45.642;13.764;2023-01-30T01:10:35;4.60;49.70
74657;DHT22;63185;45.642;13.764;2023-01-30T01:13:01;4.50;49.40
74657;DHT22;63185;45.642;13.764;2023-01-30T01:15:27;4.50;49.10
74657;DHT22;63185;45.642;13.764;2023-01-30T01:17:53;4.60;48.70
74657;DHT22;63185;45.642;13.764;2023-01-30T01:20:19;4.60;48.80
74657;DHT22;63185;45.642;13.764;2023-01-30T01:22:46;4.60;48.70
74657;DHT22;63185;45.642;13.764;2023-01-30T01:25:15;4.50;48.30
74657;DHT22;63185;45.642;13.764;2023-01-30T01:27:41;4.50;48.40
74657;DHT22;63185;45.642;13.764;2023-01-30T01:30:07;4.60;48.60
74657;DHT22;63185;45.642;13.764;2023-01-30T01:32:33;4.60;48.10
74657;DHT22;63185;45.642;13.764;2023-01-30T01:34:59;4.60;47.80
74657;DHT22;63185;45.642;13.764;2023-01-30T01:37:25;4.60;47.70
74657;DHT22;63185;45.642;13.764;2023-01-30T01:39:50;4.60;47.80
74657;DHT22;63185;45.642;13.764;2023-01-30T01:42:37;4.60;47.60
74657;DHT22;63185;45.642;13.764;2023-01-30T01:47:42;4.70;47.30
74657;DHT22;63185;45.642;13.764;2023-01-30T01:50:22;4.70;47.30
74657;DHT22;63185;45.642;13.764;2023-01-30T01:52:51;4.70;48.00
74657;DHT22;63185;45.642;13.764;2023-01-30T01:55:20;4.80;47.90
74657;DHT22;63185;45.642;13.764;2023-01-30T01:57:52;4.70;48.20
74657;DHT22;63185;45.642;13.764;2023-01-30T02:00:20;4.70;48.50
74657;DHT22;63185;45.642;13.764;2023-01-30T02:02:58;4.70;48.40
74657;DHT22;63185;45.642;13.764;2023-01-30T02:05:29;4.70;48.30
74657;DHT22;63185;45.642;13.764;2023-01-30T02:10:51;4.60;48.20
74657;DHT22;63185;45.642;13.764;2023-01-30T02:13:18;4.60;48.50
74657;DHT22;63185;45.642;13.764;2023-01-30T02:15:44;4.60;48.50
74657;DHT22;63185;45.642;13.764;2023-01-30T02:18:12;4.60;48.70
74657;DHT22;63185;45.642;13.764;2023-01-30T02:24:12;4.50;48.90
74657;DHT22;63185;45.642;13.764;2023-01-30T02:38:21;4.40;48.30
74657;DHT22;63185;45.642;13.764;2023-01-30T02:46:14;4.40;47.70
74657;DHT22;63185;45.642;13.764;2023-01-30T02:48:53;4.40;48.60
74657;DHT22;63185;45.642;13.764;2023-01-30T02:51:34;4.50;48.10
74657;DHT22;63185;45.642;13.764;2023-01-30T02:54:00;4.40;47.90
74657;DHT22;63185;45.642;13.764;2023-01-30T02:56:26;4.40;47.70
74657;DHT22;63185;45.642;13.764;2023-01-30T02:58:57;4.40;47.60
74657;DHT22;63185;45.642;13.764;2023-01-30T03:10:01;4.40;48.30
74657;DHT22;63185;45.642;13.764;2023-01-30T03:15:37;4.40;48.10
74657;DHT22;63185;45.642;13.764;2023-01-30T03:18:04;4.40;48.20
74657;DHT22;63185;45.642;13.764;2023-01-30T03:20:38;4.40;47.90
74657;DHT22;63185;45.642;13.764;2023-01-30T03:23:05;4.40;48.00
74657;DHT22;63185;45.642;13.764;2023-01-30T03:25:31;4.40;48.20
74657;DHT22;63185;45.642;13.764;2023-01-30T03:27:57;4.40;48.70
74657;DHT22;63185;45.642;13.764;2023-01-30T03:30:25;4.40;48.60
74657;DHT22;63185;45.642;13.764;2023-01-30T03:32:51;4.40;48.30
74657;DHT22;63185;45.642;13.764;2023-01-30T03:35:16;4.40;48.60
74657;DHT22;63185;45.642;13.764;2023-01-30T03:37:43;4.40;49.00
74657;DHT22;63185;45.642;13.764;2023-01-30T03:40:11;4.30;49.10
74657;DHT22;63185;45.642;13.764;2023-01-30T03:42:37;4.30;48.90
74657;DHT22;63185;45.642;13.764;2023-01-30T03:45:04;4.30;48.70
74657;DHT22;63185;45.642;13.764;2023-01-30T03:47:29;4.20;48.80
74657;DHT22;63185;45.642;13.764;2023-01-30T03:49:55;4.20;48.60
74657;DHT22;63185;45.642;13.764;2023-01-30T03:52:21;4.20;48.80
74657;DHT22;63185;45.642;13.764;2023-01-30T03:54:46;4.30;48.90
74657;DHT22;63185;45.642;13.764;2023-01-30T03:57:12;4.20;49.00
74657;DHT22;63185;45.642;13.764;2023-01-30T03:59:38;4.20;48.90
74657;DHT22;63185;45.642;13.764;2023-01-30T04:02:03;4.20;49.00
74657;DHT22;63185;45.642;13.764;2023-01-30T04:04:29;4.20;49.20
74657;DHT22;63185;45.642;13.764;2023-01-30T04:06:55;4.20;49.30
74657;DHT22;63185;45.642;13.764;2023-01-30T04:09:20;4.20;49.10
74657;DHT22;63185;45.642;13.764;2023-01-30T04:11:46;4.20;49.30
74657;DHT22;63185;45.642;13.764;2023-01-30T04:14:12;4.20;49.40
74657;DHT22;63185;45.642;13.764;2023-01-30T04:16:38;4.20;49.50
74657;DHT22;63185;45.642;13.764;2023-01-30T04:19:03;4.20;49.30
74657;DHT22;63185;45.642;13.764;2023-01-30T04:21:29;4.20;49.30
74657;DHT22;63185;45.642;13.764;2023-01-30T04:23:55;4.20;49.10
74657;DHT22;63185;45.642;13.764;2023-01-30T04:26:20;4.20;49.30
74657;DHT22;63185;45.642;13.764;2023-01-30T04:28:46;4.10;49.00
74657;DHT22;63185;45.642;13.764;2023-01-30T04:31:12;4.20;48.90
74657;DHT22;63185;45.642;13.764;2023-01-30T04:33:38;4.20;49.20
74657;DHT22;63185;45.642;13.764;2023-01-30T04:36:05;4.20;49.20
74657;DHT22;63185;45.642;13.764;2023-01-30T04:38:32;4.20;49.40
74657;DHT22;63185;45.642;13.764;2023-01-30T04:40:58;4.20;49.20
74657;DHT22;63185;45.642;13.764;2023-01-30T04:43:26;4.20;49.10
74657;DHT22;63185;45.642;13.764;2023-01-30T04:45:52;4.20;49.20
74657;DHT22;63185;45.642;13.764;2023-01-30T04:48:18;4.10;49.40
74657;DHT22;63185;45.642;13.764;2023-01-30T04:50:47;4.10;49.70
74657;DHT22;63185;45.642;13.764;2023-01-30T04:53:13;4.10;50.20
74657;DHT22;63185;45.642;13.764;2023-01-30T04:55:39;4.10;50.30
74657;DHT22;63185;45.642;13.764;2023-01-30T04:58:04;4.10;50.50
74657;DHT22;63185;45.642;13.764;2023-01-30T05:00:30;4.10;50.60
74657;DHT22;63185;45.642;13.764;2023-01-30T05:02:56;4.20;50.70
74657;DHT22;63185;45.642;13.764;2023-01-30T05:05:22;4.10;50.80
74657;DHT22;63185;45.642;13.764;2023-01-30T05:07:48;4.10;50.90
74657;DHT22;63185;45.642;13.764;2023-01-30T05:10:15;4.10;50.80
74657;DHT22;63185;45.642;13.764;2023-01-30T05:12:41;4.10;50.70
74657;DHT22;63185;45.642;13.764;2023-01-30T05:15:07;4.10;50.60
74657;DHT22;63185;45.642;13.764;2023-01-30T05:17:34;4.10;50.90
74657;DHT22;63185;45.642;13.764;2023-01-30T05:19:59;4.00;50.90
74657;DHT22;63185;45.642;13.764;2023-01-30T05:22:25;4.10;51.10
74657;DHT22;63185;45.642;13.764;2023-01-30T05:24:51;4.10;51.30
74657;DHT22;63185;45.642;13.764;2023-01-30T05:27:17;4.10;51.70
74657;DHT22;63185;45.642;13.764;2023-01-30T05:29:43;4.10;51.70
74657;DHT22;63185;45.642;13.764;2023-01-30T05:32:13;4.10;51.80
74657;DHT22;63185;45.642;13.764;2023-01-30T05:34:39;4.10;52.00
74657;DHT22;63185;45.642;13.764;2023-01-30T05:37:05;4.10;52.10
74657;DHT22;63185;45.642;13.764;2023-01-30T05:39:30;4.10;52.20
74657;DHT22;63185;45.642;13.764;2023-01-30T05:41:56;4.00;52.00
74657;DHT22;63185;45.642;13.764;2023-01-30T05:44:22;4.00;52.00
74657;DHT22;63185;45.642;13.764;2023-01-30T05:46:50;4.00;52.20
74657;DHT22;63185;45.642;13.764;2023-01-30T05:49:16;4.10;52.10
74657;DHT22;63185;45.642;13.764;2023-01-30T05:51:42;4.10;52.10
74657;DHT22;63185;45.642;13.764;2023-01-30T05:54:08;4.10;52.40
74657;DHT22;63185;45.642;13.764;2023-01-30T05:56:33;4.10;52.60
74657;DHT22;63185;45.642;13.764;2023-01-30T05:59:00;4.10;52.40
74657;DHT22;63185;45.642;13.764;2023-01-30T06:01:27;4.10;52.60
74657;DHT22;63185;45.642;13.764;2023-01-30T06:03:53;4.10;52.90
74657;DHT22;63185;45.642;13.764;2023-01-30T06:06:20;4.10;53.10
74657;DHT22;63185;45.642;13.764;2023-01-30T06:08:46;4.10;53.10
74657;DHT22;63185;45.642;13.764;2023-01-30T06:11:14;4.10;53.40
74657;DHT22;63185;45.642;13.764;2023-01-30T06:13:40;4.10;53.70
74657;DHT22;63185;45.642;13.764;2023-01-30T06:16:08;4.10;54.00
74657;DHT22;63185;45.642;13.764;2023-01-30T06:18:34;4.10;54.40
74657;DHT22;63185;45.642;13.764;2023-01-30T06:21:00;4.10;54.50
74657;DHT22;63185;45.642;13.764;2023-01-30T06:23:26;4.10;54.00
74657;DHT22;63185;45.642;13.764;2023-01-30T06:25:53;4.00;53.90
74657;DHT22;63185;45.642;13.764;2023-01-30T06:28:21;4.10;54.10
74657;DHT22;63185;45.642;13.764;2023-01-30T06:30:47;4.10;54.10
74657;DHT22;63185;45.642;13.764;2023-01-30T06:33:13;4.10;53.80
74657;DHT22;63185;45.642;13.764;2023-01-30T06:35:40;4.10;53.90
74657;DHT22;63185;45.642;13.764;2023-01-30T06:38:07;4.10;54.00
74657;DHT22;63185;45.642;13.764;2023-01-30T06:40:36;4.20;54.00
74657;DHT22;63185;45.642;13.764;2023-01-30T06:43:02;4.20;53.90
74657;DHT22;63185;45.642;13.764;2023-01-30T06:45:28;4.30;53.90
74657;DHT22;63185;45.642;13.764;2023-01-30T06:47:54;4.30;53.90
74657;DHT22;63185;45.642;13.764;2023-01-30T06:50:23;4.30;53.70
74657;DHT22;63185;45.642;13.764;2023-01-30T06:52:50;4.30;53.60
74657;DHT22;63185;45.642;13.764;2023-01-30T06:55:18;4.30;53.80
74657;DHT22;63185;45.642;13.764;2023-01-30T06:57:45;4.40;53.40
74657;DHT22;63185;45.642;13.764;2023-01-30T07:00:18;4.40;53.30
74657;DHT22;63185;45.642;13.764;2023-01-30T07:02:45;4.40;53.20
74657;DHT22;63185;45.642;13.764;2023-01-30T07:05:11;4.50;52.80
74657;DHT22;63185;45.642;13.764;2023-01-30T07:07:38;4.50;52.60
74657;DHT22;63185;45.642;13.764;2023-01-30T07:10:05;4.60;52.20
74657;DHT22;63185;45.642;13.764;2023-01-30T07:12:31;4.60;52.20
74657;DHT22;63185;45.642;13.764;2023-01-30T07:14:57;4.70;52.30
74657;DHT22;63185;45.642;13.764;2023-01-30T07:17:23;4.70;52.20
74657;DHT22;63185;45.642;13.764;2023-01-30T07:19:49;4.80;52.20
74657;DHT22;63185;45.642;13.764;2023-01-30T07:22:15;4.80;52.10
74657;DHT22;63185;45.642;13.764;2023-01-30T07:24:41;4.90;51.90
74657;DHT22;63185;45.642;13.764;2023-01-30T07:27:09;4.90;51.70
74657;DHT22;63185;45.642;13.764;2023-01-30T07:29:36;4.90;51.70
74657;DHT22;63185;45.642;13.764;2023-01-30T07:32:02;5.10;51.60
74657;DHT22;63185;45.642;13.764;2023-01-30T07:34:28;5.10;51.40
74657;DHT22;63185;45.642;13.764;2023-01-30T07:36:54;5.20;51.40
74657;DHT22;63185;45.642;13.764;2023-01-30T07:39:20;5.20;50.90
74657;DHT22;63185;45.642;13.764;2023-01-30T07:41:46;5.30;50.50
74657;DHT22;63185;45.642;13.764;2023-01-30T07:44:12;5.30;49.60
74657;DHT22;63185;45.642;13.764;2023-01-30T07:46:38;5.50;49.40
74657;DHT22;63185;45.642;13.764;2023-01-30T07:49:06;5.50;49.10
74657;DHT22;63185;45.642;13.764;2023-01-30T07:51:33;5.60;48.90
74657;DHT22;63185;45.642;13.764;2023-01-30T07:53:59;5.70;48.40
74657;DHT22;63185;45.642;13.764;2023-01-30T07:56:29;5.80;47.80
74657;DHT22;63185;45.642;13.764;2023-01-30T07:58:55;6.00;47.50
74657;DHT22;63185;45.642;13.764;2023-01-30T08:01:21;6.20;46.70
74657;DHT22;63185;45.642;13.764;2023-01-30T08:03:47;6.20;46.50
74657;DHT22;63185;45.642;13.764;2023-01-30T08:06:17;6.30;45.80
74657;DHT22;63185;45.642;13.764;2023-01-30T08:08:43;6.50;45.70
74657;DHT22;63185;45.642;13.764;2023-01-30T08:11:09;6.60;45.30
74657;DHT22;63185;45.642;13.764;2023-01-30T08:13:35;6.70;45.10
74657;DHT22;63185;45.642;13.764;2023-01-30T08:16:02;6.90;45.00
74657;DHT22;63185;45.642;13.764;2023-01-30T08:18:29;6.90;44.90
74657;DHT22;63185;45.642;13.764;2023-01-30T08:20:59;7.10;44.20
74657;DHT22;63185;45.642;13.764;2023-01-30T08:23:25;7.20;44.20
74657;DHT22;63185;45.642;13.764;2023-01-30T08:25:59;7.30;44.00
74657;DHT22;63185;45.642;13.764;2023-01-30T08:28:26;7.40;43.70
74657;DHT22;63185;45.642;13.764;2023-01-30T08:30:52;7.50;43.50
74657;DHT22;63185;45.642;13.764;2023-01-30T08:33:19;7.60;43.60
74657;DHT22;63185;45.642;13.764;2023-01-30T08:35:45;7.70;43.30
74657;DHT22;63185;45.642;13.764;2023-01-30T08:38:11;7.80;43.30
74657;DHT22;63185;45.642;13.764;2023-01-30T08:40:37;7.90;43.00
74657;DHT22;63185;45.642;13.764;2023-01-30T08:43:03;8.00;42.60
74657;DHT22;63185;45.642;13.764;2023-01-30T08:45:30;8.10;42.70
74657;DHT22;63185;45.642;13.764;2023-01-30T08:48:04;8.20;42.50
74657;DHT22;63185;45.642;13.764;2023-01-30T08:50:32;8.20;42.70
74657;DHT22;63185;45.642;13.764;2023-01-30T08:53:05;8.40;43.00
74657;DHT22;63185;45.642;13.764;2023-01-30T08:55:31;8.60;42.60
74657;DHT22;63185;45.642;13.764;2023-01-30T08:57:57;8.70;42.20
74657;DHT22;63185;45.642;13.764;2023-01-30T09:00:22;8.80;41.80
74657;DHT22;63185;45.642;13.764;2023-01-30T09:02:52;9.00;42.00
74657;DHT22;63185;45.642;13.764;2023-01-30T09:05:18;9.00;41.80
74657;DHT22;63185;45.642;13.764;2023-01-30T09:07:44;9.20;41.30
74657;DHT22;63185;45.642;13.764;2023-01-30T09:10:10;9.00;40.70
74657;DHT22;63185;45.642;13.764;2023-01-30T09:12:35;9.00;40.30
74657;DHT22;63185;45.642;13.764;2023-01-30T09:15:01;9.00;40.70
74657;DHT22;63185;45.642;13.764;2023-01-30T09:17:27;9.10;40.60
74657;DHT22;63185;45.642;13.764;2023-01-30T09:19:52;9.10;40.90
74657;DHT22;63185;45.642;13.764;2023-01-30T09:22:18;9.10;41.10
74657;DHT22;63185;45.642;13.764;2023-01-30T09:24:44;9.00;41.30
74657;DHT22;63185;45.642;13.764;2023-01-30T09:27:09;8.90;41.90
74657;DHT22;63185;45.642;13.764;2023-01-30T09:29:35;8.90;42.00
74657;DHT22;63185;45.642;13.764;2023-01-30T09:32:01;8.90;41.80
74657;DHT22;63185;45.642;13.764;2023-01-30T09:34:27;9.00;41.70
74657;DHT22;63185;45.642;13.764;2023-01-30T09:36:57;8.90;40.80
74657;DHT22;63185;45.642;13.764;2023-01-30T09:39:25;8.90;40.80
74657;DHT22;63185;45.642;13.764;2023-01-30T09:47:39;8.70;41.80
74657;DHT22;63185;45.642;13.764;2023-01-30T09:53:28;8.40;42.30
74657;DHT22;63185;45.642;13.764;2023-01-30T09:55:58;8.40;43.90
74657;DHT22;63185;45.642;13.764;2023-01-30T09:58:36;8.20;44.30
74657;DHT22;63185;45.642;13.764;2023-01-30T10:01:10;8.30;45.70
74657;DHT22;63185;45.642;13.764;2023-01-30T10:03:54;8.30;45.10
74657;DHT22;63185;45.642;13.764;2023-01-30T10:06:21;8.20;44.70
74657;DHT22;63185;45.642;13.764;2023-01-30T10:22:05;8.60;45.50
74657;DHT22;63185;45.642;13.764;2023-01-30T10:27:14;8.50;45.80
74657;DHT22;63185;45.642;13.764;2023-01-30T10:29:47;8.70;45.80
74657;DHT22;63185;45.642;13.764;2023-01-30T10:32:18;8.70;45.70
74657;DHT22;63185;45.642;13.764;2023-01-30T10:34:52;8.90;45.50
74657;DHT22;63185;45.642;13.764;2023-01-30T10:37:26;8.80;43.90
74657;DHT22;63185;45.642;13.764;2023-01-30T10:45:17;9.30;44.80
74657;DHT22;63185;45.642;13.764;2023-01-30T10:47:59;9.00;44.70
74657;DHT22;63185;45.642;13.764;2023-01-30T10:55:49;9.20;45.80
74657;DHT22;63185;45.642;13.764;2023-01-30T10:58:35;9.30;46.30
74657;DHT22;63185;45.642;13.764;2023-01-30T11:01:06;9.40;46.00
74657;DHT22;63185;45.642;13.764;2023-01-30T11:03:47;9.30;46.60
74657;DHT22;63185;45.642;13.764;2023-01-30T11:06:17;9.50;46.80
74657;DHT22;63185;45.642;13.764;2023-01-30T11:08:44;9.80;46.50
74657;DHT22;63185;45.642;13.764;2023-01-30T11:14:05;9.90;45.80
74657;DHT22;63185;45.642;13.764;2023-01-30T11:16:39;9.80;45.70
74657;DHT22;63185;45.642;13.764;2023-01-30T11:19:08;9.90;46.50
74657;DHT22;63185;45.642;13.764;2023-01-30T11:21:34;9.80;46.80
74657;DHT22;63185;45.642;13.764;2023-01-30T11:24:15;9.60;47.50
74657;DHT22;63185;45.642;13.764;2023-01-30T11:26:42;9.50;48.00
74657;DHT22;63185;45.642;13.764;2023-01-30T11:31:41;9.20;48.70
74657;DHT22;63185;45.642;13.764;2023-01-30T11:34:16;9.10;49.30
74657;DHT22;63185;45.642;13.764;2023-01-30T11:36:42;8.90;49.80
74657;DHT22;63185;45.642;13.764;2023-01-30T11:41:59;8.80;50.50
74657;DHT22;63185;45.642;13.764;2023-01-30T11:44:35;8.70;50.20
74657;DHT22;63185;45.642;13.764;2023-01-30T11:47:14;8.70;50.60
74657;DHT22;63185;45.642;13.764;2023-01-30T11:49:45;8.90;50.40
74657;DHT22;63185;45.642;13.764;2023-01-30T11:52:16;8.90;50.60
74657;DHT22;63185;45.642;13.764;2023-01-30T11:54:44;8.90;50.60
74657;DHT22;63185;45.642;13.764;2023-01-30T11:57:13;8.90;50.80
74657;DHT22;63185;45.642;13.764;2023-01-30T11:59:43;8.80;51.60
74657;DHT22;63185;45.642;13.764;2023-01-30T12:02:20;8.80;51.20
74657;DHT22;63185;45.642;13.764;2023-01-30T12:04:51;9.00;51.70
74657;DHT22;63185;45.642;13.764;2023-01-30T12:07:25;9.00;51.20
74657;DHT22;63185;45.642;13.764;2023-01-30T12:09:52;8.90;52.00
74657;DHT22;63185;45.642;13.764;2023-01-30T12:12:39;8.80;51.40
74657;DHT22;63185;45.642;13.764;2023-01-30T12:15:29;8.60;52.00
74657;DHT22;63185;45.642;13.764;2023-01-30T12:29:34;9.20;51.10
74657;DHT22;63185;45.642;13.764;2023-01-30T12:32:38;9.30;51.10
74657;DHT22;63185;45.642;13.764;2023-01-30T12:34:57;9.20;51.70
74657;DHT22;63185;45.642;13.764;2023-01-30T12:58:13;9.80;50.40
74657;DHT22;63185;45.642;13.764;2023-01-30T13:00:51;9.90;50.00
74657;DHT22;63185;45.642;13.764;2023-01-30T13:12:22;10.00;49.70
74657;DHT22;63185;45.642;13.764;2023-01-30T13:20:15;9.90;50.90
74657;DHT22;63185;45.642;13.764;2023-01-30T13:25:35;9.70;50.90
74657;DHT22;63185;45.642;13.764;2023-01-30T13:28:25;9.70;51.40
74657;DHT22;63185;45.642;13.764;2023-01-30T13:30:53;9.70;51.80
74657;DHT22;63185;45.642;13.764;2023-01-30T13:33:31;9.60;51.10
74657;DHT22;63185;45.642;13.764;2023-01-30T13:39:03;9.50;51.30
74657;DHT22;63185;45.642;13.764;2023-01-30T13:41:36;9.40;52.00
74657;DHT22;63185;45.642;13.764;2023-01-30T13:44:28;9.40;52.30
74657;DHT22;63185;45.642;13.764;2023-01-30T13:46:58;9.60;52.20
74657;DHT22;63185;45.642;13.764;2023-01-30T13:52:45;9.70;51.90
74657;DHT22;63185;45.642;13.764;2023-01-30T13:55:37;9.80;52.30
74657;DHT22;63185;45.642;13.764;2023-01-30T13:58:16;9.80;52.40
74657;DHT22;63185;45.642;13.764;2023-01-30T14:00:54;9.70;52.90
74657;DHT22;63185;45.642;13.764;2023-01-30T14:08:20;9.90;52.80
74657;DHT22;63185;45.642;13.764;2023-01-30T14:10:47;9.80;52.60
74657;DHT22;63185;45.642;13.764;2023-01-30T14:13:14;9.80;52.80
74657;DHT22;63185;45.642;13.764;2023-01-30T14:15:52;9.80;53.30
74657;DHT22;63185;45.642;13.764;2023-01-30T14:18:36;9.90;52.90
74657;DHT22;63185;45.642;13.764;2023-01-30T14:21:35;9.80;52.90
74657;DHT22;63185;45.642;13.764;2023-01-30T14:24:03;9.80;53.20
74657;DHT22;63185;45.642;13.764;2023-01-30T15:05:00;12.60;47.60
74657;DHT22;63185;45.642;13.764;2023-01-30T15:07:54;13.00;47.00
74657;DHT22;63185;45.642;13.764;2023-01-30T15:18:26;13.10;46.40
74657;DHT22;63185;45.642;13.764;2023-01-30T15:24:34;12.40;48.20
74657;DHT22;63185;45.642;13.764;2023-01-30T15:29:55;12.40;48.60
74657;DHT22;63185;45.642;13.764;2023-01-30T15:32:28;12.30;48.70
74657;DHT22;63185;45.642;13.764;2023-01-30T15:35:11;12.00;49.60
74657;DHT22;63185;45.642;13.764;2023-01-30T15:37:56;11.80;50.20
74657;DHT22;63185;45.642;13.764;2023-01-30T15:50:53;9.90;55.80
74657;DHT22;63185;45.642;13.764;2023-01-30T15:53:26;9.80;56.40
74657;DHT22;63185;45.642;13.764;2023-01-30T15:55:53;9.70;56.80
74657;DHT22;63185;45.642;13.764;2023-01-30T15:58:21;9.50;57.50
74657;DHT22;63185;45.642;13.764;2023-01-30T16:00:49;9.30;58.50
74657;DHT22;63185;45.642;13.764;2023-01-30T16:03:25;9.10;59.30
74657;DHT22;63185;45.642;13.764;2023-01-30T16:05:53;8.90;60.00
74657;DHT22;63185;45.642;13.764;2023-01-30T16:08:33;8.90;60.10
74657;DHT22;63185;45.642;13.764;2023-01-30T16:11:00;8.80;60.20
74657;DHT22;63185;45.642;13.764;2023-01-30T16:13:26;8.60;61.10
74657;DHT22;63185;45.642;13.764;2023-01-30T16:16:16;8.60;61.40
74657;DHT22;63185;45.642;13.764;2023-01-30T16:18:49;8.50;61.20
74657;DHT22;63185;45.642;13.764;2023-01-30T16:21:20;8.50;61.70
74657;DHT22;63185;45.642;13.764;2023-01-30T16:26:32;8.30;62.20
74657;DHT22;63185;45.642;13.764;2023-01-30T16:29:04;8.20;62.40
74657;DHT22;63185;45.642;13.764;2023-01-30T16:31:38;8.20;62.50
74657;DHT22;63185;45.642;13.764;2023-01-30T16:34:04;8.20;62.70
74657;DHT22;63185;45.642;13.764;2023-01-30T16:36:39;8.20;62.80
74657;DHT22;63185;45.642;13.764;2023-01-30T16:39:26;8.10;63.00
74657;DHT22;63185;45.642;13.764;2023-01-30T16:41:56;8.10;62.30
74657;DHT22;63185;45.642;13.764;2023-01-30T16:47:04;8.10;62.50
74657;DHT22;63185;45.642;13.764;2023-01-30T16:55:04;8.20;62.30
74657;DHT22;63185;45.642;13.764;2023-01-30T16:57:42;8.10;62.50
74657;DHT22;63185;45.642;13.764;2023-01-30T17:00:19;8.10;62.50
74657;DHT22;63185;45.642;13.764;2023-01-30T17:02:59;8.00;62.50
74657;DHT22;63185;45.642;13.764;2023-01-30T17:05:28;8.00;62.80
74657;DHT22;63185;45.642;13.764;2023-01-30T17:07:55;7.90;63.30
74657;DHT22;63185;45.642;13.764;2023-01-30T17:16:17;7.90;63.90
74657;DHT22;63185;45.642;13.764;2023-01-30T17:18:51;7.90;63.20
74657;DHT22;63185;45.642;13.764;2023-01-30T17:21:20;7.80;63.70
74657;DHT22;63185;45.642;13.764;2023-01-30T17:23:53;7.90;63.70
74657;DHT22;63185;45.642;13.764;2023-01-30T17:26:20;7.80;63.70
74657;DHT22;63185;45.642;13.764;2023-01-30T17:28:46;7.80;63.20
74657;DHT22;63185;45.642;13.764;2023-01-30T17:31:13;7.80;63.00
74657;DHT22;63185;45.642;13.764;2023-01-30T17:33:39;7.80;62.90
74657;DHT22;63185;45.642;13.764;2023-01-30T17:36:11;7.80;63.40
74657;DHT22;63185;45.642;13.764;2023-01-30T17:38:39;7.80;63.10
74657;DHT22;63185;45.642;13.764;2023-01-30T17:41:05;7.80;63.00
74657;DHT22;63185;45.642;13.764;2023-01-30T17:43:34;7.80;62.90
74657;DHT22;63185;45.642;13.764;2023-01-30T17:45:59;7.70;63.10
74657;DHT22;63185;45.642;13.764;2023-01-30T17:48:25;7.60;63.40
74657;DHT22;63185;45.642;13.764;2023-01-30T17:50:51;7.60;63.20
74657;DHT22;63185;45.642;13.764;2023-01-30T17:53:16;7.50;63.40
74657;DHT22;63185;45.642;13.764;2023-01-30T17:55:42;7.50;63.60
74657;DHT22;63185;45.642;13.764;2023-01-30T17:58:15;7.60;63.70
74657;DHT22;63185;45.642;13.764;2023-01-30T18:00:41;7.50;63.80
74657;DHT22;63185;45.642;13.764;2023-01-30T18:03:07;7.50;63.90
74657;DHT22;63185;45.642;13.764;2023-01-30T18:05:32;7.40;64.30
74657;DHT22;63185;45.642;13.764;2023-01-30T18:07:58;7.30;64.70
74657;DHT22;63185;45.642;13.764;2023-01-30T18:10:24;7.30;65.10
74657;DHT22;63185;45.642;13.764;2023-01-30T18:12:50;7.30;65.30
74657;DHT22;63185;45.642;13.764;2023-01-30T18:15:16;7.30;65.50
74657;DHT22;63185;45.642;13.764;2023-01-30T18:17:44;7.20;65.70
74657;DHT22;63185;45.642;13.764;2023-01-30T18:20:11;7.20;65.90
74657;DHT22;63185;45.642;13.764;2023-01-30T18:22:37;7.10;66.00
74657;DHT22;63185;45.642;13.764;2023-01-30T18:25:03;7.10;66.00
74657;DHT22;63185;45.642;13.764;2023-01-30T18:27:29;7.10;66.10
74657;DHT22;63185;45.642;13.764;2023-01-30T18:29:55;7.10;66.10
74657;DHT22;63185;45.642;13.764;2023-01-30T18:32:20;7.10;66.10
74657;DHT22;63185;45.642;13.764;2023-01-30T18:34:46;7.10;66.20
74657;DHT22;63185;45.642;13.764;2023-01-30T18:37:12;7.10;66.10
74657;DHT22;63185;45.642;13.764;2023-01-30T18:39:37;7.00;65.90
74657;DHT22;63185;45.642;13.764;2023-01-30T18:42:04;7.00;66.10
74657;DHT22;63185;45.642;13.764;2023-01-30T18:44:30;7.00;66.00
74657;DHT22;63185;45.642;13.764;2023-01-30T18:46:56;7.00;66.00
74657;DHT22;63185;45.642;13.764;2023-01-30T18:49:22;7.00;66.10
74657;DHT22;63185;45.642;13.764;2023-01-30T18:51:48;6.90;66.00
74657;DHT22;63185;45.642;13.764;2023-01-30T18:54:14;6.90;66.00
74657;DHT22;63185;45.642;13.764;2023-01-30T18:56:40;6.90;66.10
74657;DHT22;63185;45.642;13.764;2023-01-30T18:59:06;6.90;66.10
74657;DHT22;63185;45.642;13.764;2023-01-30T19:01:34;6.90;66.10
74657;DHT22;63185;45.642;13.764;2023-01-30T19:04:04;6.80;66.00
74657;DHT22;63185;45.642;13.764;2023-01-30T19:06:30;6.80;66.10
74657;DHT22;63185;45.642;13.764;2023-01-30T19:08:58;6.90;66.00
74657;DHT22;63185;45.642;13.764;2023-01-30T19:11:24;6.80;66.00
74657;DHT22;63185;45.642;13.764;2023-01-30T19:14:09;6.80;65.90
74657;DHT22;63185;45.642;13.764;2023-01-30T19:16:36;6.80;65.90
74657;DHT22;63185;45.642;13.764;2023-01-30T19:19:03;6.80;65.90
74657;DHT22;63185;45.642;13.764;2023-01-30T19:21:29;6.70;66.00
74657;DHT22;63185;45.642;13.764;2023-01-30T19:23:55;6.70;66.00